ADDS METAR Data INFO
IDs: Format: Raw Decoded Include TAF

Data at: 0757 UTC 23 Jul 2018

KLOZ 230753Z AUTO 29003KT 10SM -RA OVC009 20/20 A2979 RMK AO2 CIG 008V013 SLP078 P0007 T02000200
KLOZ 230751Z AUTO 28004KT 10SM -RA OVC009 20/20 A2979 RMK AO2 CIG 008V013 P0007
KLOZ 230707Z AUTO 21005KT 3SM -RA BR BKN012 OVC019 20/20 A2979 RMK AO2 P0006 T02000200
KLOZ 230704Z AUTO 23005KT 2SM RA BR SCT012 OVC019 20/20 A2979 RMK AO2 P0006 T02000200
KLOZ 230653Z AUTO 26007KT 1/2SM +RA FG FEW004 SCT010 OVC017 20/20 A2979 RMK AO2 SLP078 P0068 T02000200
KLOZ 230645Z AUTO 25004KT 3/4SM +RA BR SCT006 OVC015 20/20 A2980 RMK AO2 P0041 T02000200
KLOZ 230635Z AUTO 25003KT 1 3/4SM +RA BR SCT005 BKN010 OVC017 21/20 A2980 RMK AO2 P0019 T02060200
KLOZ 230614Z AUTO 24003KT 2SM +RA BR SCT003 BKN007 OVC030 21/21 A2980 RMK AO2 P0011 T02060206
KLOZ 230607Z AUTO 26003KT 2SM RA BR SCT004 BKN010 OVC050 21/21 A2980 RMK AO2 P0007 T02060206
KLOZ 230601Z AUTO 25003KT 1 1/2SM +RA BR BKN004 BKN010 OVC043 21/21 A2981 RMK AO2 P0005 T02060206
KLOZ 230553Z AUTO 00000KT 2SM RA BR BKN003 OVC008 21/21 A2981 RMK AO2 RAB26 SLP080 P0008 60008 T02060206 10217 20200 58003
KLOZ 230548Z AUTO 00000KT 3SM RA BR BKN003 OVC008 21/21 A2981 RMK AO2 RAB26 P0006
KLOZ 230542Z AUTO 00000KT 2 1/2SM RA BR OVC005 21/21 A2981 RMK AO2 RAB26 CIG 003V010 P0004 T02060206
KLOZ 230534Z AUTO 24003KT 4SM -RA BR BKN005 OVC009 21/21 A2981 RMK AO2 RAB26 CIG 003V007 P0001 T02060206
KLOZ 230453Z AUTO 00000KT 10SM BKN004 OVC028 21/21 A2981 RMK AO2 SLP084 T02060206 402440200
KLOZ 230431Z AUTO 23003KT 10SM BKN004 OVC019 21/21 A2982 RMK AO2 T02060206
KLOZ 230353Z AUTO 21005KT 10SM FEW004 BKN017 OVC029 20/20 A2981 RMK AO2 SLP084 T02000200
KLOZ 230349Z AUTO 20004KT 10SM SCT004 OVC017 20/20 A2982 RMK AO2
KLOZ 230308Z AUTO 00000KT 10SM OVC004 21/20 A2982 RMK AO2 T02060200
KLOZ 230258Z AUTO 23003KT 10SM BKN005 BKN011 21/21 A2982 RMK AO2 T02060206
KLOZ 230249Z AUTO 00000KT 10SM SCT005 BKN010 21/20 A2983 RMK AO2 SLP088 T02060200 53013
KLOZ 230248Z AUTO 00000KT 10SM SCT005 BKN010 21/20 A2983 RMK AO2
KLOZ 230153Z AUTO 23003KT 10SM FEW022 21/20 A2981 RMK AO2 SLP082 T02060200
KLOZ 230053Z AUTO 27004KT 10SM FEW120 21/21 A2980 RMK AO2 SLP078 T02060206
KLOZ 222353Z AUTO 24005KT 10SM FEW044 21/21 A2979 RMK AO2 RAE09 SLP076 P0001 60015 T02110206 10239 20206 53011
KLOZ 222309Z AUTO 21004KT 10SM FEW009 SCT060 BKN110 21/21 A2977 RMK AO2 RAE09 P0001 T02110206
KLOZ 222253Z AUTO 25004KT 10SM -RA FEW019 BKN070 OVC110 21/21 A2977 RMK AO2 RAB38 SLP069 P0000 T02110206
KLOZ 222153Z AUTO 29005KT 10SM FEW008 SCT014 BKN055 22/21 A2976 RMK AO2 RAE47 SLP066 P0002 T02170206
KLOZ 222146Z AUTO 29006KT 10SM -RA FEW008 SCT013 BKN028 22/21 A2976 RMK AO2 P0002 T02170206
KLOZ 222139Z AUTO 27004KT 7SM -RA BKN013 BKN028 OVC085 22/21 A2976 RMK AO2 LTG DSNT N P0002 T02170211
KLOZ 222053Z AUTO 00000KT 9SM -RA SCT019 BKN060 OVC090 21/21 A2975 RMK AO2 RAB01E11B37 SLP065 P0007 60012 T02110206 55002
KLOZ 222048Z AUTO VRB04KT 3SM -RA BR FEW009 BKN042 OVC095 21/20 A2975 RMK AO2 RAB01E11B37 P0007
KLOZ 222045Z AUTO 30004G17KT 1 3/4SM -RA BR FEW009 BKN038 OVC055 21/20 A2975 RMK AO2 RAB01E11B37 P0007 T02060200
KLOZ 222038Z AUTO 31007G17KT 2 1/2SM RA BR FEW009 BKN020 OVC075 22/20 A2976 RMK AO2 RAB01E11B37 P0005 T02170200
KLOZ 222016Z AUTO 29005KT 10SM FEW041 BKN055 OVC080 22/21 A2975 RMK AO2 RAB01E11 P0000 T02220206
KLOZ 222001Z AUTO 30006KT 10SM VCTS -RA SCT039 OVC055 23/21 A2975 RMK AO2 LTG DSNT W RAB01 P0000 T02280206
KLOZ 221953Z AUTO 28004KT 10SM FEW015 SCT039 BKN055 22/20 A2975 RMK AO2 LTG DSNT W RAE12 SLP061 P0001 T02220200
KLOZ 221907Z AUTO 30004KT 5SM -RA BR SCT046 OVC070 21/20 A2976 RMK AO2 P0001 T02110200
KLOZ 221900Z AUTO 29005KT 2 1/2SM RA BR FEW018 BKN048 OVC070 21/20 A2976 RMK AO2 P0001 T02060200
KLOZ 221853Z AUTO 29007KT 3SM RA BR FEW016 BKN041 OVC048 21/20 A2976 RMK AO2 RAB24 SLP067 P0004 T02060200
KLOZ 221851Z AUTO 29007KT 3SM RA BR FEW016 BKN043 OVC055 21/20 A2976 RMK AO2 RAB24 P0003
KLOZ 221753Z AUTO 23007KT 10SM SCT019 BKN025 OVC055 23/19 A2976 RMK AO2 RAB32E42 SLP067 P0000 60000 T02330194 10244 20200 58005
KLOZ 221733Z AUTO 28009G18KT 10SM -RA SCT021 SCT027 OVC048 23/19 A2977 RMK AO2 RAB32 P0000 T02280189
KLOZ 221724Z AUTO 25013KT 10SM SCT021 BKN029 BKN043 23/19 A2977 RMK AO2 T02330189
KLOZ 221653Z AUTO 26006KT 10SM FEW033 SCT043 OVC055 23/20 A2977 RMK AO2 RAB35E50 SLP071 P0000 T02280200
KLOZ 221636Z AUTO 25011KT 10SM -RA FEW018 BKN038 OVC048 22/19 A2978 RMK AO2 RAB35 P0000 T02220194
KLOZ 221617Z AUTO 23012G18KT 10SM BKN018 BKN025 OVC032 23/19 A2977 RMK AO2 T02280189
KLOZ 221604Z AUTO 25008G17KT 10SM FEW018 BKN030 OVC065 24/19 A2977 RMK AO2 T02390194
KLOZ 221553Z AUTO 23007KT 10SM SCT016 BKN026 OVC065 23/19 A2977 RMK AO2 SLP070 T02280189
KLOZ 221520Z AUTO 24008KT 10SM SCT014 SCT047 OVC070 22/19 A2978 RMK AO2 T02220194
KLOZ 221453Z AUTO 25007KT 10SM SCT013 BKN029 OVC065 22/19 A2978 RMK AO2 SLP072 T02220189 53002
KLOZ 221412Z AUTO 28007KT 10SM SCT013 BKN035 OVC060 22/19 A2978 RMK AO2 T02170189
KLOZ 221401Z AUTO 26007KT 10SM BKN014 BKN020 OVC029 22/19 A2978 RMK AO2 T02170189
KLOZ 221353Z AUTO 27007KT 10SM SCT014 BKN018 OVC035 21/19 A2978 RMK AO2 SLP072 T02110189
KLOZ 221253Z AUTO 24009KT 10SM BKN011 OVC017 21/19 A2977 RMK AO2 SLP069 T02110189
KLOZ 221153Z AUTO 25008KT 10SM BKN010 BKN065 OVC100 20/19 A2977 RMK AO2 CIG 006V013 SLP069 70007 T02000194 10206 20200 51005
KLOZ 221133Z AUTO 25008KT 10SM BKN008 OVC100 20/19 A2977 RMK AO2 CIG 006V012 T02000194
KLOZ 221124Z AUTO 25007KT 10SM OVC010 20/19 A2977 RMK AO2 CIG 006V013 T02000194
KLOZ 221053Z AUTO 24008KT 10SM BKN009 OVC013 20/19 A2977 RMK AO2 CIG 006V011 SLP069 T02000194
KLOZ 221033Z AUTO 24008KT 10SM FEW008 BKN013 OVC060 20/19 A2977 RMK AO2 T02000194
KLOZ 221021Z AUTO 25007KT 10SM FEW009 BKN029 OVC060 20/19 A2976 RMK AO2 T02000194
KLOZ 221010Z AUTO 26007KT 10SM FEW009 SCT027 BKN060 20/19 A2976 RMK AO2 T02000194
KLOZ 220953Z AUTO 26008KT 10SM FEW008 SCT012 BKN027 20/19 A2976 RMK AO2 SLP064 T02000194
KLOZ 220944Z AUTO 25008KT 10SM FEW008 BKN012 OVC026 20/19 A2976 RMK AO2 T02000194
KLOZ 220857Z AUTO 27007KT 10SM SCT009 OVC017 20/19 A2975 RMK AO2 T02000194
KLOZ 220853Z AUTO 27007KT 10SM BKN011 OVC017 20/19 A2975 RMK AO2 SLP062 T02000194 56007
KLOZ 220849Z AUTO 28007KT 10SM BKN011 OVC017 20/19 A2975 RMK AO2
KLOZ 220834Z AUTO 27007KT 10SM BKN009 OVC015 20/19 A2975 RMK AO2 CIG 007V011 T02000194
KLOZ 220822Z AUTO 27006KT 10SM BKN010 OVC015 21/19 A2975 RMK AO2 CIG 007V012 T02060194
KLOZ 220801Z AUTO 24008KT 10SM FEW009 OVC015 20/20 A2975 RMK AO2 T02000200
KLOZ 220753Z AUTO 24006KT 10SM SCT008 BKN014 OVC020 20/20 A2975 RMK AO2 SLP064 T02000200
KLOZ 220720Z AUTO 24005KT 10SM FEW009 OVC013 21/20 A2976 RMK AO2 T02060200
KLOZ 220653Z AUTO 24005KT 10SM OVC011 21/20 A2977 RMK AO2 SLP068 T02060200
KLOZ 220643Z AUTO 23004KT 10SM BKN011 OVC017 20/20 A2977 RMK AO2 T02000200
KLOZ 220553Z AUTO 24004KT 10SM FEW006 BKN027 OVC050 20/20 A2978 RMK AO2 RAB0455E28 SLP072 P0003 60003 T02000200 10222 20200 58007
KLOZ 220538Z AUTO 23004KT 10SM SCT008 BKN024 OVC050 20/20 A2979 RMK AO2 RAB0455E28 P0003 T02000200
KLOZ 220519Z AUTO 25004KT 4SM RA BR FEW006 BKN013 OVC024 20/20 A2979 RMK AO2 RAB0455 P0003 T02000200
KLOZ 220453Z AUTO 26010KT 10SM FEW020 BKN027 OVC041 21/19 A2980 RMK AO2 SLP077 T02060194 402830172
KLOZ 220353Z AUTO 24004KT 10SM BKN027 BKN033 OVC043 21/20 A2980 RMK AO2 SLP078 T02110200
KLOZ 220253Z AUTO 19004KT 10SM SCT029 SCT037 BKN070 21/21 A2981 RMK AO2 RAE0159 SLP080 P0000 60000 T02110206 50005
KLOZ 220153Z AUTO 00000KT 10SM -RA BKN032 OVC044 21/21 A2981 RMK AO2 RAB48 SLP084 P0000 T02110206
KLOZ 220053Z AUTO 24005KT 10SM FEW037 22/19 A2980 RMK AO2 SLP080 T02220189
KLOZ 212353Z AUTO 23012G18KT 10SM SCT033 BKN090 OVC100 24/19 A2979 RMK AO2 LTG DSNT NE SLP076 60004 T02390189 10283 20217 55002
KLOZ 212253Z AUTO 22005KT 10SM FEW070 FEW100 24/19 A2978 RMK AO2 SLP074 T02440194
KLOZ 212153Z AUTO 23007KT 10SM CLR 25/19 A2979 RMK AO2 SLP078 T02500189
KLOZ 212053Z AUTO 23011G19KT 10SM FEW075 BKN100 24/19 A2980 RMK AO2 SLP079 60004 T02440189 56010